sensor_id;sensor_type;location;lat;lon;timestamp;temperature;humidity
68804;SHT31;55787;52.678;13.314;2022-09-09T00:04:44;13.61;99.80
68804;SHT31;55787;52.678;13.314;2022-09-09T00:10:41;13.53;99.99
68804;SHT31;55787;52.678;13.314;2022-09-09T00:13:05;13.48;99.95
68804;SHT31;55787;52.678;13.314;2022-09-09T00:15:57;13.42;99.92
68804;SHT31;55787;52.678;13.314;2022-09-09T00:18:27;13.35;99.90
68804;SHT31;55787;52.678;13.314;2022-09-09T00:21:06;13.32;99.88
68804;SHT31;55787;52.678;13.314;2022-09-09T00:23:37;13.28;99.99
68804;SHT31;55787;52.678;13.314;2022-09-09T00:32:14;13.12;99.98
68804;SHT31;55787;52.678;13.314;2022-09-09T00:35:14;13.07;99.90
68804;SHT31;55787;52.678;13.314;2022-09-09T00:37:42;13.02;99.99
68804;SHT31;55787;52.678;13.314;2022-09-09T00:40:34;13.00;99.99
68804;SHT31;55787;52.678;13.314;2022-09-09T00:45:59;12.93;99.99
68804;SHT31;55787;52.678;13.314;2022-09-09T00:48:58;12.87;99.94
68804;SHT31;55787;52.678;13.314;2022-09-09T00:54:30;12.81;99.99
68804;SHT31;55787;52.678;13.314;2022-09-09T00:57:13;12.76;99.99
68804;SHT31;55787;52.678;13.314;2022-09-09T00:59:58;12.70;99.99
68804;SHT31;55787;52.678;13.314;2022-09-09T01:02:30;12.67;99.88
68804;SHT31;55787;52.678;13.314;2022-09-09T01:05:06;12.61;99.93
68804;SHT31;55787;52.678;13.314;2022-09-09T01:07:34;12.54;99.87
68804;SHT31;55787;52.678;13.314;2022-09-09T01:10:06;12.53;99.97
68804;SHT31;55787;52.678;13.314;2022-09-09T01:12:41;12.49;99.99
68804;SHT31;55787;52.678;13.314;2022-09-09T01:15:17;12.46;99.95
68804;SHT31;55787;52.678;13.314;2022-09-09T01:17:58;12.44;99.92
68804;SHT31;55787;52.678;13.314;2022-09-09T01:20:39;12.40;99.99
68804;SHT31;55787;52.678;13.314;2022-09-09T01:28:38;12.32;99.99
68804;SHT31;55787;52.678;13.314;2022-09-09T01:31:06;12.34;99.99
68804;SHT31;55787;52.678;13.314;2022-09-09T01:33:34;12.33;99.99
68804;SHT31;55787;52.678;13.314;2022-09-09T01:36:08;12.30;99.99
68804;SHT31;55787;52.678;13.314;2022-09-09T01:38:36;12.26;99.99
68804;SHT31;55787;52.678;13.314;2022-09-09T01:41:03;12.26;99.99
68804;SHT31;55787;52.678;13.314;2022-09-09T01:43:30;12.22;99.99
68804;SHT31;55787;52.678;13.314;2022-09-09T01:45:59;12.26;99.99
68804;SHT31;55787;52.678;13.314;2022-09-09T01:48:27;12.25;99.99
68804;SHT31;55787;52.678;13.314;2022-09-09T01:50:54;12.23;99.99
68804;SHT31;55787;52.678;13.314;2022-09-09T01:53:21;12.25;99.99
68804;SHT31;55787;52.678;13.314;2022-09-09T02:02:04;12.19;99.99
68804;SHT31;55787;52.678;13.314;2022-09-09T02:04:39;12.13;99.99
68804;SHT31;55787;52.678;13.314;2022-09-09T02:07:16;12.12;99.99
68804;SHT31;55787;52.678;13.314;2022-09-09T02:09:47;12.05;99.99
68804;SHT31;55787;52.678;13.314;2022-09-09T02:12:18;12.02;99.99
68804;SHT31;55787;52.678;13.314;2022-09-09T02:14:52;11.99;99.99
68804;SHT31;55787;52.678;13.314;2022-09-09T02:17:29;11.96;99.99
68804;SHT31;55787;52.678;13.314;2022-09-09T02:20:05;11.95;99.99
68804;SHT31;55787;52.678;13.314;2022-09-09T02:22:34;11.88;99.99
68804;SHT31;55787;52.678;13.314;2022-09-09T02:25:02;11.85;99.99
68804;SHT31;55787;52.678;13.314;2022-09-09T02:27:31;11.86;99.99
68804;SHT31;55787;52.678;13.314;2022-09-09T02:29:59;11.85;99.99
68804;SHT31;55787;52.678;13.314;2022-09-09T02:32:29;11.82;99.99
68804;SHT31;55787;52.678;13.314;2022-09-09T02:35:02;11.77;99.99
68804;SHT31;55787;52.678;13.314;2022-09-09T02:37:36;11.72;99.99
68804;SHT31;55787;52.678;13.314;2022-09-09T02:40:04;11.75;99.99
68804;SHT31;55787;52.678;13.314;2022-09-09T02:42:31;11.70;99.99
68804;SHT31;55787;52.678;13.314;2022-09-09T02:44:58;11.65;99.99
68804;SHT31;55787;52.678;13.314;2022-09-09T02:53:13;11.64;99.99
68804;SHT31;55787;52.678;13.314;2022-09-09T02:55:48;11.62;99.99
68804;SHT31;55787;52.678;13.314;2022-09-09T02:58:17;11.61;99.99
68804;SHT31;55787;52.678;13.314;2022-09-09T03:00:49;11.61;99.99
68804;SHT31;55787;52.678;13.314;2022-09-09T03:03:18;11.62;99.99
68804;SHT31;55787;52.678;13.314;2022-09-09T03:05:44;11.58;99.99
68804;SHT31;55787;52.678;13.314;2022-09-09T03:08:11;11.58;99.99
68804;SHT31;55787;52.678;13.314;2022-09-09T03:10:39;11.57;99.99
68804;SHT31;55787;52.678;13.314;2022-09-09T03:13:06;11.57;99.99
68804;SHT31;55787;52.678;13.314;2022-09-09T03:15:32;11.54;99.99
68804;SHT31;55787;52.678;13.314;2022-09-09T03:17:59;11.53;99.99
68804;SHT31;55787;52.678;13.314;2022-09-09T03:20:28;11.51;99.99
68804;SHT31;55787;52.678;13.314;2022-09-09T03:22:55;11.48;99.99
68804;SHT31;55787;52.678;13.314;2022-09-09T03:25:22;11.44;99.99
68804;SHT31;55787;52.678;13.314;2022-09-09T03:27:52;11.43;99.99
68804;SHT31;55787;52.678;13.314;2022-09-09T03:30:22;11.43;99.99
68804;SHT31;55787;52.678;13.314;2022-09-09T03:32:48;11.45;99.99
68804;SHT31;55787;52.678;13.314;2022-09-09T03:35:15;11.47;99.99
68804;SHT31;55787;52.678;13.314;2022-09-09T03:37:42;11.43;99.99
68804;SHT31;55787;52.678;13.314;2022-09-09T03:40:09;11.41;99.99
68804;SHT31;55787;52.678;13.314;2022-09-09T03:42:39;11.41;99.99
68804;SHT31;55787;52.678;13.314;2022-09-09T03:45:07;11.43;99.99
68804;SHT31;55787;52.678;13.314;2022-09-09T03:47:35;11.45;99.99
68804;SHT31;55787;52.678;13.314;2022-09-09T03:50:02;11.48;99.99
68804;SHT31;55787;52.678;13.314;2022-09-09T03:52:30;11.51;99.99
68804;SHT31;55787;52.678;13.314;2022-09-09T03:54:56;11.55;99.99
68804;SHT31;55787;52.678;13.314;2022-09-09T03:57:23;11.58;99.99
68804;SHT31;55787;52.678;13.314;2022-09-09T03:59:50;11.62;99.99
68804;SHT31;55787;52.678;13.314;2022-09-09T04:02:16;11.72;99.99
68804;SHT31;55787;52.678;13.314;2022-09-09T04:04:42;11.71;99.99
68804;SHT31;55787;52.678;13.314;2022-09-09T04:07:09;11.72;99.99
68804;SHT31;55787;52.678;13.314;2022-09-09T04:09:36;11.74;99.99
68804;SHT31;55787;52.678;13.314;2022-09-09T04:12:02;11.71;99.99
68804;SHT31;55787;52.678;13.314;2022-09-09T04:14:29;11.70;99.99
68804;SHT31;55787;52.678;13.314;2022-09-09T04:16:55;11.67;99.99
68804;SHT31;55787;52.678;13.314;2022-09-09T04:19:23;11.65;99.99
68804;SHT31;55787;52.678;13.314;2022-09-09T04:21:50;11.62;99.99
68804;SHT31;55787;52.678;13.314;2022-09-09T04:24:18;11.58;99.99
68804;SHT31;55787;52.678;13.314;2022-09-09T04:26:45;11.48;99.99
68804;SHT31;55787;52.678;13.314;2022-09-09T04:29:11;11.47;99.99
68804;SHT31;55787;52.678;13.314;2022-09-09T04:31:38;11.43;99.99
68804;SHT31;55787;52.678;13.314;2022-09-09T04:34:11;11.38;99.99
68804;SHT31;55787;52.678;13.314;2022-09-09T04:36:37;11.35;99.99
68804;SHT31;55787;52.678;13.314;2022-09-09T04:39:05;11.35;99.99
68804;SHT31;55787;52.678;13.314;2022-09-09T04:41:33;11.34;99.99
68804;SHT31;55787;52.678;13.314;2022-09-09T04:43:59;11.34;99.99
68804;SHT31;55787;52.678;13.314;2022-09-09T04:46:26;11.33;99.99
68804;SHT31;55787;52.678;13.314;2022-09-09T04:48:53;11.31;99.99
68804;SHT31;55787;52.678;13.314;2022-09-09T04:51:20;11.31;99.99
68804;SHT31;55787;52.678;13.314;2022-09-09T04:53:46;11.30;99.99
68804;SHT31;55787;52.678;13.314;2022-09-09T04:56:15;11.33;99.99
68804;SHT31;55787;52.678;13.314;2022-09-09T04:58:42;11.37;99.99
68804;SHT31;55787;52.678;13.314;2022-09-09T05:01:17;11.41;99.99
68804;SHT31;55787;52.678;13.314;2022-09-09T05:03:45;11.44;99.99
68804;SHT31;55787;52.678;13.314;2022-09-09T05:06:16;11.44;99.99
68804;SHT31;55787;52.678;13.314;2022-09-09T05:08:43;11.47;99.99
68804;SHT31;55787;52.678;13.314;2022-09-09T05:11:19;11.51;99.99
68804;SHT31;55787;52.678;13.314;2022-09-09T05:13:46;11.53;99.99
68804;SHT31;55787;52.678;13.314;2022-09-09T05:16:13;11.60;99.99
68804;SHT31;55787;52.678;13.314;2022-09-09T05:18:41;11.71;99.99
68804;SHT31;55787;52.678;13.314;2022-09-09T05:21:10;11.81;99.99
68804;SHT31;55787;52.678;13.314;2022-09-09T05:23:37;11.91;99.99
68804;SHT31;55787;52.678;13.314;2022-09-09T05:26:04;11.99;99.99
68804;SHT31;55787;52.678;13.314;2022-09-09T05:28:34;12.11;99.99
68804;SHT31;55787;52.678;13.314;2022-09-09T05:31:03;12.21;99.99
68804;SHT31;55787;52.678;13.314;2022-09-09T05:33:31;12.36;99.99
68804;SHT31;55787;52.678;13.314;2022-09-09T05:36:04;12.52;99.99
68804;SHT31;55787;52.678;13.314;2022-09-09T05:38:31;12.61;99.99
68804;SHT31;55787;52.678;13.314;2022-09-09T05:40:59;12.71;99.99
68804;SHT31;55787;52.678;13.314;2022-09-09T05:43:26;12.83;99.99
68804;SHT31;55787;52.678;13.314;2022-09-09T05:46:08;12.88;99.99
68804;SHT31;55787;52.678;13.314;2022-09-09T05:48:40;13.01;99.99
68804;SHT31;55787;52.678;13.314;2022-09-09T05:51:10;13.15;99.99
68804;SHT31;55787;52.678;13.314;2022-09-09T05:53:38;13.28;99.99
68804;SHT31;55787;52.678;13.314;2022-09-09T05:56:13;13.53;99.99
68804;SHT31;55787;52.678;13.314;2022-09-09T05:58:40;13.76;99.89
68804;SHT31;55787;52.678;13.314;2022-09-09T06:01:12;14.09;99.21
68804;SHT31;55787;52.678;13.314;2022-09-09T06:03:41;14.18;98.80
68804;SHT31;55787;52.678;13.314;2022-09-09T06:06:09;14.09;98.87
68804;SHT31;55787;52.678;13.314;2022-09-09T06:08:38;14.10;98.88
68804;SHT31;55787;52.678;13.314;2022-09-09T06:11:13;14.25;98.58
68804;SHT31;55787;52.678;13.314;2022-09-09T06:13:41;14.24;98.60
68804;SHT31;55787;52.678;13.314;2022-09-09T06:16:12;14.18;98.69
68804;SHT31;55787;52.678;13.314;2022-09-09T06:18:40;14.21;98.76
68804;SHT31;55787;52.678;13.314;2022-09-09T06:21:11;14.25;98.76
68804;SHT31;55787;52.678;13.314;2022-09-09T06:23:39;14.41;98.66
68804;SHT31;55787;52.678;13.314;2022-09-09T06:26:11;14.62;98.34
68804;SHT31;55787;52.678;13.314;2022-09-09T06:28:38;14.85;98.14
68804;SHT31;55787;52.678;13.314;2022-09-09T06:31:07;15.22;97.13
68804;SHT31;55787;52.678;13.314;2022-09-09T06:33:36;15.78;96.19
68804;SHT31;55787;52.678;13.314;2022-09-09T06:36:05;16.76;91.18
68804;SHT31;55787;52.678;13.314;2022-09-09T06:38:31;17.69;86.58
68804;SHT31;55787;52.678;13.314;2022-09-09T06:40:59;18.51;82.17
68804;SHT31;55787;52.678;13.314;2022-09-09T06:43:26;20.02;77.00
68804;SHT31;55787;52.678;13.314;2022-09-09T06:46:00;20.89;74.16
68804;SHT31;55787;52.678;13.314;2022-09-09T06:48:27;21.54;70.70
68804;SHT31;55787;52.678;13.314;2022-09-09T06:53:28;22.00;68.13
68804;SHT31;55787;52.678;13.314;2022-09-09T06:55:56;22.32;67.70
68804;SHT31;55787;52.678;13.314;2022-09-09T06:58:22;22.64;66.29
68804;SHT31;55787;52.678;13.314;2022-09-09T07:00:49;22.41;67.12
68804;SHT31;55787;52.678;13.314;2022-09-09T07:03:15;21.40;69.63
68804;SHT31;55787;52.678;13.314;2022-09-09T07:05:42;21.72;66.99
68804;SHT31;55787;52.678;13.314;2022-09-09T07:08:10;20.28;71.36
68804;SHT31;55787;52.678;13.314;2022-09-09T07:10:38;21.28;69.41
68804;SHT31;55787;52.678;13.314;2022-09-09T07:13:07;21.86;67.70
68804;SHT31;55787;52.678;13.314;2022-09-09T07:15:34;22.17;68.21
68804;SHT31;55787;52.678;13.314;2022-09-09T07:18:00;22.36;66.27
68804;SHT31;55787;52.678;13.314;2022-09-09T07:20:27;24.00;62.25
68804;SHT31;55787;52.678;13.314;2022-09-09T07:22:54;25.17;57.78
68804;SHT31;55787;52.678;13.314;2022-09-09T07:25:21;23.98;59.20
68804;SHT31;55787;52.678;13.314;2022-09-09T07:27:48;25.68;54.85
68804;SHT31;55787;52.678;13.314;2022-09-09T07:30:14;24.82;54.12
68804;SHT31;55787;52.678;13.314;2022-09-09T07:32:51;21.88;64.19
68804;SHT31;55787;52.678;13.314;2022-09-09T07:35:17;23.16;64.08
68804;SHT31;55787;52.678;13.314;2022-09-09T07:37:44;24.57;62.08
68804;SHT31;55787;52.678;13.314;2022-09-09T07:40:16;26.28;54.59
68804;SHT31;55787;52.678;13.314;2022-09-09T07:42:42;26.40;55.32
68804;SHT31;55787;52.678;13.314;2022-09-09T07:45:09;27.27;53.52
68804;SHT31;55787;52.678;13.314;2022-09-09T07:47:35;27.82;50.45
68804;SHT31;55787;52.678;13.314;2022-09-09T07:50:02;27.12;51.36
68804;SHT31;55787;52.678;13.314;2022-09-09T07:52:28;25.57;54.93
68804;SHT31;55787;52.678;13.314;2022-09-09T07:54:54;24.48;58.67
68804;SHT31;55787;52.678;13.314;2022-09-09T07:57:22;23.04;62.50
68804;SHT31;55787;52.678;13.314;2022-09-09T07:59:49;23.16;66.74
68804;SHT31;55787;52.678;13.314;2022-09-09T08:02:15;23.07;64.20
68804;SHT31;55787;52.678;13.314;2022-09-09T08:04:42;22.61;65.69
68804;SHT31;55787;52.678;13.314;2022-09-09T08:07:08;21.88;66.95
68804;SHT31;55787;52.678;13.314;2022-09-09T08:09:34;21.57;66.64
68804;SHT31;55787;52.678;13.314;2022-09-09T08:12:01;22.44;66.50
68804;SHT31;55787;52.678;13.314;2022-09-09T08:14:28;23.79;61.05
68804;SHT31;55787;52.678;13.314;2022-09-09T08:16:55;23.81;59.04
68804;SHT31;55787;52.678;13.314;2022-09-09T08:19:23;25.68;57.85
68804;SHT31;55787;52.678;13.314;2022-09-09T08:21:49;26.72;54.38
68804;SHT31;55787;52.678;13.314;2022-09-09T08:24:16;26.80;51.23
68804;SHT31;55787;52.678;13.314;2022-09-09T08:26:44;27.48;50.17
68804;SHT31;55787;52.678;13.314;2022-09-09T08:29:12;27.88;50.68
68804;SHT31;55787;52.678;13.314;2022-09-09T08:31:56;25.85;53.25
68804;SHT31;55787;52.678;13.314;2022-09-09T08:34:24;27.59;49.65
68804;SHT31;55787;52.678;13.314;2022-09-09T08:36:53;25.64;52.30
68804;SHT31;55787;52.678;13.314;2022-09-09T08:39:21;26.32;56.44
68804;SHT31;55787;52.678;13.314;2022-09-09T08:42:17;27.49;50.79
68804;SHT31;55787;52.678;13.314;2022-09-09T08:50:36;29.11;47.36
68804;SHT31;55787;52.678;13.314;2022-09-09T08:58:18;27.03;50.67
68804;SHT31;55787;52.678;13.314;2022-09-09T09:06:15;25.27;54.04
68804;SHT31;55787;52.678;13.314;2022-09-09T09:09:01;24.48;59.11
68804;SHT31;55787;52.678;13.314;2022-09-09T09:11:36;24.80;58.79
68804;SHT31;55787;52.678;13.314;2022-09-09T09:14:10;25.17;58.41
68804;SHT31;55787;52.678;13.314;2022-09-09T09:19:08;24.32;62.04
68804;SHT31;55787;52.678;13.314;2022-09-09T09:24:20;23.50;62.36
68804;SHT31;55787;52.678;13.314;2022-09-09T09:26:47;23.80;61.07
68804;SHT31;55787;52.678;13.314;2022-09-09T09:29:19;23.94;62.94
68804;SHT31;55787;52.678;13.314;2022-09-09T09:31:53;23.65;60.16
68804;SHT31;55787;52.678;13.314;2022-09-09T09:34:23;24.04;60.76
68804;SHT31;55787;52.678;13.314;2022-09-09T09:36:57;24.29;59.52
68804;SHT31;55787;52.678;13.314;2022-09-09T09:39:30;23.96;60.24
68804;SHT31;55787;52.678;13.314;2022-09-09T09:42:17;24.61;61.71
68804;SHT31;55787;52.678;13.314;2022-09-09T09:44:49;26.76;57.18
68804;SHT31;55787;52.678;13.314;2022-09-09T09:47:17;28.71;48.77
68804;SHT31;55787;52.678;13.314;2022-09-09T09:49:55;30.27;43.88
68804;SHT31;55787;52.678;13.314;2022-09-09T09:52:25;30.42;42.70
68804;SHT31;55787;52.678;13.314;2022-09-09T09:54:53;27.70;47.78
68804;SHT31;55787;52.678;13.314;2022-09-09T09:57:25;29.18;46.64
68804;SHT31;55787;52.678;13.314;2022-09-09T10:02:40;30.49;43.36
68804;SHT31;55787;52.678;13.314;2022-09-09T10:07:40;30.15;45.01
68804;SHT31;55787;52.678;13.314;2022-09-09T10:10:15;29.91;44.22
68804;SHT31;55787;52.678;13.314;2022-09-09T10:17:55;30.46;41.74
68804;SHT31;55787;52.678;13.314;2022-09-09T10:37:51;30.38;42.35
68804;SHT31;55787;52.678;13.314;2022-09-09T10:40:36;30.36;43.02
68804;SHT31;55787;52.678;13.314;2022-09-09T10:43:16;32.49;39.37
68804;SHT31;55787;52.678;13.314;2022-09-09T10:48:42;32.55;38.98
68804;SHT31;55787;52.678;13.314;2022-09-09T10:57:37;33.34;40.93
68804;SHT31;55787;52.678;13.314;2022-09-09T11:00:13;32.86;39.02
68804;SHT31;55787;52.678;13.314;2022-09-09T11:02:41;33.95;37.92
68804;SHT31;55787;52.678;13.314;2022-09-09T11:05:22;32.19;39.01
68804;SHT31;55787;52.678;13.314;2022-09-09T11:07:57;31.21;39.10
68804;SHT31;55787;52.678;13.314;2022-09-09T11:10:40;30.56;40.78
68804;SHT31;55787;52.678;13.314;2022-09-09T11:13:32;30.49;42.61
68804;SHT31;55787;52.678;13.314;2022-09-09T11:16:39;30.84;43.24
68804;SHT31;55787;52.678;13.314;2022-09-09T11:19:25;32.98;38.67
68804;SHT31;55787;52.678;13.314;2022-09-09T11:21:55;30.78;39.75
68804;SHT31;55787;52.678;13.314;2022-09-09T11:24:29;30.78;39.62
68804;SHT31;55787;52.678;13.314;2022-09-09T11:27:08;32.05;42.25
68804;SHT31;55787;52.678;13.314;2022-09-09T11:38:05;32.67;37.89
68804;SHT31;55787;52.678;13.314;2022-09-09T11:40:38;32.71;37.31
68804;SHT31;55787;52.678;13.314;2022-09-09T11:43:22;31.37;36.84
68804;SHT31;55787;52.678;13.314;2022-09-09T11:45:54;33.39;37.24
68804;SHT31;55787;52.678;13.314;2022-09-09T11:48:35;33.80;33.29
68804;SHT31;55787;52.678;13.314;2022-09-09T11:53:32;33.22;36.86
68804;SHT31;55787;52.678;13.314;2022-09-09T11:56:10;33.75;35.76
68804;SHT31;55787;52.678;13.314;2022-09-09T11:58:40;33.95;34.80
68804;SHT31;55787;52.678;13.314;2022-09-09T12:01:15;33.12;35.24
68804;SHT31;55787;52.678;13.314;2022-09-09T12:03:48;32.48;36.48
68804;SHT31;55787;52.678;13.314;2022-09-09T12:06:24;31.89;38.73
68804;SHT31;55787;52.678;13.314;2022-09-09T12:09:04;30.32;40.73
68804;SHT31;55787;52.678;13.314;2022-09-09T12:11:31;32.12;36.93
68804;SHT31;55787;52.678;13.314;2022-09-09T12:14:00;33.39;38.60
68804;SHT31;55787;52.678;13.314;2022-09-09T12:16:35;32.74;37.20
68804;SHT31;55787;52.678;13.314;2022-09-09T12:19:13;33.70;35.20
68804;SHT31;55787;52.678;13.314;2022-09-09T12:24:51;30.99;38.14
68804;SHT31;55787;52.678;13.314;2022-09-09T12:27:27;32.15;36.60
68804;SHT31;55787;52.678;13.314;2022-09-09T12:30:10;32.77;36.21
68804;SHT31;55787;52.678;13.314;2022-09-09T12:32:37;32.50;36.50
68804;SHT31;55787;52.678;13.314;2022-09-09T12:35:12;33.15;36.68
68804;SHT31;55787;52.678;13.314;2022-09-09T12:40:21;29.49;40.97
68804;SHT31;55787;52.678;13.314;2022-09-09T12:42:48;27.72;43.72
68804;SHT31;55787;52.678;13.314;2022-09-09T12:45:23;29.23;42.58
68804;SHT31;55787;52.678;13.314;2022-09-09T12:47:54;28.30;41.79
68804;SHT31;55787;52.678;13.314;2022-09-09T12:50:26;28.54;42.21
68804;SHT31;55787;52.678;13.314;2022-09-09T12:52:56;27.69;44.25
68804;SHT31;55787;52.678;13.314;2022-09-09T12:55:28;29.02;42.70
68804;SHT31;55787;52.678;13.314;2022-09-09T12:57:57;30.68;39.25
68804;SHT31;55787;52.678;13.314;2022-09-09T13:00:25;29.18;39.39
68804;SHT31;55787;52.678;13.314;2022-09-09T13:03:13;28.39;42.30
68804;SHT31;55787;52.678;13.314;2022-09-09T13:05:40;28.40;42.36
68804;SHT31;55787;52.678;13.314;2022-09-09T13:08:10;28.32;46.12
68804;SHT31;55787;52.678;13.314;2022-09-09T13:11:07;27.73;43.73
68804;SHT31;55787;52.678;13.314;2022-09-09T13:13:38;26.73;44.96
68804;SHT31;55787;52.678;13.314;2022-09-09T13:16:15;26.82;47.65
68804;SHT31;55787;52.678;13.314;2022-09-09T13:18:44;26.60;46.26
68804;SHT31;55787;52.678;13.314;2022-09-09T13:21:11;26.35;50.67
68804;SHT31;55787;52.678;13.314;2022-09-09T13:23:37;26.46;49.73
68804;SHT31;55787;52.678;13.314;2022-09-09T13:26:07;25.91;47.07
68804;SHT31;55787;52.678;13.314;2022-09-09T13:28:45;26.09;51.23
68804;SHT31;55787;52.678;13.314;2022-09-09T13:31:30;25.65;51.40
68804;SHT31;55787;52.678;13.314;2022-09-09T13:33:58;25.73;53.93
68804;SHT31;55787;52.678;13.314;2022-09-09T13:36:30;25.28;50.13
68804;SHT31;55787;52.678;13.314;2022-09-09T13:39:02;25.23;51.60
68804;SHT31;55787;52.678;13.314;2022-09-09T13:41:35;25.12;50.84
68804;SHT31;55787;52.678;13.314;2022-09-09T13:44:02;24.90;51.48
68804;SHT31;55787;52.678;13.314;2022-09-09T13:46:33;24.89;50.90
68804;SHT31;55787;52.678;13.314;2022-09-09T13:51:46;24.80;52.27
68804;SHT31;55787;52.678;13.314;2022-09-09T13:54:15;24.72;52.51
68804;SHT31;55787;52.678;13.314;2022-09-09T13:56:42;24.76;59.40
68804;SHT31;55787;52.678;13.314;2022-09-09T13:59:12;24.61;59.17
68804;SHT31;55787;52.678;13.314;2022-09-09T14:01:38;24.49;54.30
68804;SHT31;55787;52.678;13.314;2022-09-09T14:04:05;24.47;56.29
68804;SHT31;55787;52.678;13.314;2022-09-09T14:06:34;24.11;54.02
68804;SHT31;55787;52.678;13.314;2022-09-09T14:09:04;24.34;60.24
68804;SHT31;55787;52.678;13.314;2022-09-09T14:11:31;23.97;55.08
68804;SHT31;55787;52.678;13.314;2022-09-09T14:13:57;23.98;55.06
68804;SHT31;55787;52.678;13.314;2022-09-09T14:16:23;23.83;58.26
68804;SHT31;55787;52.678;13.314;2022-09-09T14:18:50;23.74;60.09
68804;SHT31;55787;52.678;13.314;2022-09-09T14:21:16;23.70;63.66
68804;SHT31;55787;52.678;13.314;2022-09-09T14:23:43;23.57;58.02
68804;SHT31;55787;52.678;13.314;2022-09-09T14:26:09;23.70;62.36
68804;SHT31;55787;52.678;13.314;2022-09-09T14:28:36;23.74;57.49
68804;SHT31;55787;52.678;13.314;2022-09-09T14:31:20;23.66;55.68
68804;SHT31;55787;52.678;13.314;2022-09-09T14:33:47;23.71;56.37
68804;SHT31;55787;52.678;13.314;2022-09-09T14:36:13;24.27;53.13
68804;SHT31;55787;52.678;13.314;2022-09-09T14:38:41;23.93;54.28
68804;SHT31;55787;52.678;13.314;2022-09-09T14:41:11;24.27;57.46
68804;SHT31;55787;52.678;13.314;2022-09-09T14:43:39;24.14;53.19
68804;SHT31;55787;52.678;13.314;2022-09-09T14:46:16;24.16;53.32
68804;SHT31;55787;52.678;13.314;2022-09-09T14:48:43;24.20;54.49
68804;SHT31;55787;52.678;13.314;2022-09-09T14:51:24;24.28;53.62
68804;SHT31;55787;52.678;13.314;2022-09-09T14:53:52;24.38;54.37
68804;SHT31;55787;52.678;13.314;2022-09-09T14:56:21;24.47;57.36
68804;SHT31;55787;52.678;13.314;2022-09-09T14:58:49;23.97;53.00
68804;SHT31;55787;52.678;13.314;2022-09-09T15:01:19;24.07;53.62
68804;SHT31;55787;52.678;13.314;2022-09-09T15:04:00;24.10;51.49
68804;SHT31;55787;52.678;13.314;2022-09-09T15:06:29;23.70;52.95
68804;SHT31;55787;52.678;13.314;2022-09-09T15:08:56;23.57;52.05
68804;SHT31;55787;52.678;13.314;2022-09-09T15:11:28;23.57;55.67
68804;SHT31;55787;52.678;13.314;2022-09-09T15:13:56;23.45;55.14
68804;SHT31;55787;52.678;13.314;2022-09-09T15:16:26;23.55;56.82
68804;SHT31;55787;52.678;13.314;2022-09-09T15:18:56;23.67;52.81
68804;SHT31;55787;52.678;13.314;2022-09-09T15:21:28;23.94;56.86
68804;SHT31;55787;52.678;13.314;2022-09-09T15:23:55;24.24;51.02
68804;SHT31;55787;52.678;13.314;2022-09-09T15:26:22;24.41;49.25
68804;SHT31;55787;52.678;13.314;2022-09-09T15:28:49;24.83;51.90
68804;SHT31;55787;52.678;13.314;2022-09-09T15:31:19;24.95;50.74
68804;SHT31;55787;52.678;13.314;2022-09-09T15:33:50;24.78;49.92
68804;SHT31;55787;52.678;13.314;2022-09-09T15:36:25;24.42;51.41
68804;SHT31;55787;52.678;13.314;2022-09-09T15:38:52;24.16;52.20
68804;SHT31;55787;52.678;13.314;2022-09-09T15:41:20;23.66;52.92
68804;SHT31;55787;52.678;13.314;2022-09-09T15:43:49;23.42;54.97
68804;SHT31;55787;52.678;13.314;2022-09-09T15:49:02;22.90;60.17
68804;SHT31;55787;52.678;13.314;2022-09-09T15:51:29;22.58;60.13
68804;SHT31;55787;52.678;13.314;2022-09-09T15:54:10;22.29;61.62
68804;SHT31;55787;52.678;13.314;2022-09-09T15:56:38;22.17;61.76
68804;SHT31;55787;52.678;13.314;2022-09-09T15:59:04;22.06;62.03
68804;SHT31;55787;52.678;13.314;2022-09-09T16:01:31;21.89;63.34
68804;SHT31;55787;52.678;13.314;2022-09-09T16:03:58;21.71;64.19
68804;SHT31;55787;52.678;13.314;2022-09-09T16:06:27;21.54;65.89
68804;SHT31;55787;52.678;13.314;2022-09-09T16:08:56;21.35;66.46
68804;SHT31;55787;52.678;13.314;2022-09-09T16:11:25;21.24;68.17
68804;SHT31;55787;52.678;13.314;2022-09-09T16:13:53;21.08;69.55
68804;SHT31;55787;52.678;13.314;2022-09-09T16:16:22;20.93;70.41
68804;SHT31;55787;52.678;13.314;2022-09-09T16:18:52;20.80;71.47
68804;SHT31;55787;52.678;13.314;2022-09-09T16:21:31;20.70;71.71
68804;SHT31;55787;52.678;13.314;2022-09-09T16:24:00;20.56;71.55
68804;SHT31;55787;52.678;13.314;2022-09-09T16:26:28;20.46;73.49
68804;SHT31;55787;52.678;13.314;2022-09-09T16:28:55;20.33;73.50
68804;SHT31;55787;52.678;13.314;2022-09-09T16:31:23;20.19;74.99
68804;SHT31;55787;52.678;13.314;2022-09-09T16:33:50;20.14;74.83
68804;SHT31;55787;52.678;13.314;2022-09-09T16:36:22;20.07;74.47
68804;SHT31;55787;52.678;13.314;2022-09-09T16:38:59;19.98;75.16
68804;SHT31;55787;52.678;13.314;2022-09-09T16:41:27;19.94;75.14
68804;SHT31;55787;52.678;13.314;2022-09-09T16:43:58;19.85;75.84
68804;SHT31;55787;52.678;13.314;2022-09-09T16:46:27;19.82;75.51
68804;SHT31;55787;52.678;13.314;2022-09-09T16:48:56;19.75;74.62
68804;SHT31;55787;52.678;13.314;2022-09-09T16:51:30;19.63;75.02
68804;SHT31;55787;52.678;13.314;2022-09-09T16:54:01;19.51;76.10
68804;SHT31;55787;52.678;13.314;2022-09-09T16:56:30;19.37;76.81
68804;SHT31;55787;52.678;13.314;2022-09-09T16:59:03;19.27;77.32
68804;SHT31;55787;52.678;13.314;2022-09-09T17:01:31;19.19;76.20
68804;SHT31;55787;52.678;13.314;2022-09-09T17:04:02;19.09;76.72
68804;SHT31;55787;52.678;13.314;2022-09-09T17:06:30;18.99;76.64
68804;SHT31;55787;52.678;13.314;2022-09-09T17:08:58;18.92;77.52
68804;SHT31;55787;52.678;13.314;2022-09-09T17:11:25;18.79;79.23
68804;SHT31;55787;52.678;13.314;2022-09-09T17:13:52;18.71;78.82
68804;SHT31;55787;52.678;13.314;2022-09-09T17:16:23;18.61;79.61
68804;SHT31;55787;52.678;13.314;2022-09-09T17:18:51;18.45;81.35
68804;SHT31;55787;52.678;13.314;2022-09-09T17:21:20;18.34;82.22
68804;SHT31;55787;52.678;13.314;2022-09-09T17:23:47;18.27;82.28
68804;SHT31;55787;52.678;13.314;2022-09-09T17:26:16;18.20;81.92
68804;SHT31;55787;52.678;13.314;2022-09-09T17:28:44;18.11;82.85
68804;SHT31;55787;52.678;13.314;2022-09-09T17:31:13;18.01;83.09
68804;SHT31;55787;52.678;13.314;2022-09-09T17:33:43;17.92;83.25
68804;SHT31;55787;52.678;13.314;2022-09-09T17:36:11;17.83;82.90